createdAt,value
2023-03-20T00:02:47.711Z,7.99
2023-03-20T00:05:51.617Z,7.96
2023-03-20T00:08:55.218Z,7.82
2023-03-20T00:11:57.272Z,7.79
2023-03-20T00:15:03.287Z,7.72
2023-03-20T00:18:23.188Z,7.77
2023-03-20T00:21:25.907Z,7.90
2023-03-20T00:24:28.033Z,7.79
2023-03-20T00:27:30.057Z,7.60
2023-03-20T00:30:32.363Z,7.51
2023-03-20T00:33:35.090Z,7.45
2023-03-20T00:36:37.194Z,7.47
2023-03-20T00:39:39.960Z,7.47
2023-03-20T00:42:45.077Z,7.50
2023-03-20T00:45:47.347Z,7.45
2023-03-20T00:48:49.988Z,7.49
2023-03-20T00:51:52.404Z,7.61
2023-03-20T00:54:54.498Z,7.72
2023-03-20T00:58:02.331Z,7.71
2023-03-20T01:01:04.681Z,7.70
2023-03-20T01:04:14.060Z,7.76
2023-03-20T01:07:16.574Z,7.66
2023-03-20T01:10:19.151Z,7.67
2023-03-20T01:13:27.298Z,7.73
2023-03-20T01:16:29.556Z,7.81
2023-03-20T01:19:31.642Z,7.84
2023-03-20T01:22:33.972Z,7.87
2023-03-20T01:25:37.388Z,7.76
2023-03-20T01:28:39.800Z,7.79
2023-03-20T01:31:42.280Z,7.82
2023-03-20T01:34:44.736Z,7.92
2023-03-20T01:37:48.267Z,7.95
2023-03-20T01:41:01.571Z,7.93
2023-03-20T01:44:33.434Z,7.96
2023-03-20T01:47:35.953Z,7.97
2023-03-20T01:50:38.704Z,8.10
2023-03-20T01:53:56.547Z,8.13
2023-03-20T01:57:13.170Z,8.13
2023-03-20T02:00:16.964Z,8.22
2023-03-20T02:03:20.044Z,8.28
2023-03-20T02:06:42.380Z,8.28
2023-03-20T02:10:19.107Z,8.30
2023-03-20T02:13:44.116Z,8.32
2023-03-20T02:16:46.490Z,8.31
2023-03-20T02:20:17.687Z,8.37
2023-03-20T02:23:49.106Z,8.37
2023-03-20T02:27:25.371Z,8.40
2023-03-20T02:30:40.410Z,8.50
2023-03-20T02:34:10.620Z,8.48
2023-03-20T02:37:51.277Z,8.41
2023-03-20T02:41:19.286Z,8.27
2023-03-20T02:44:46.403Z,8.09
2023-03-20T02:48:24.177Z,7.96
2023-03-20T02:51:50.137Z,8.08
2023-03-20T02:55:01.561Z,8.12
2023-03-20T02:58:24.252Z,8.10
2023-03-20T03:02:09.876Z,8.06
2023-03-20T03:05:19.195Z,8.11
2023-03-20T03:08:26.228Z,8.08
2023-03-20T03:11:28.555Z,8.06
2023-03-20T03:14:37.796Z,8.05
2023-03-20T03:17:44.943Z,8.11
2023-03-20T03:20:50.848Z,8.10
2023-03-20T03:23:53.418Z,8.06
2023-03-20T03:26:57.736Z,8.06
2023-03-20T03:30:29.138Z,7.98
2023-03-20T03:33:34.724Z,7.81
2023-03-20T03:36:45.921Z,7.69
2023-03-20T03:40:17.733Z,7.65
2023-03-20T03:43:31.347Z,7.65
2023-03-20T03:46:52.673Z,7.59
2023-03-20T03:50:02.483Z,7.59
2023-03-20T03:53:12.189Z,7.63
2023-03-20T03:56:17.604Z,7.55
2023-03-20T03:59:31.757Z,7.43
2023-03-20T04:02:35.427Z,7.31
2023-03-20T04:05:43.015Z,7.36
2023-03-20T04:08:45.712Z,7.38
2023-03-20T04:11:51.285Z,7.49
2023-03-20T04:14:54.377Z,7.59
2023-03-20T04:17:59.084Z,7.72
2023-03-20T04:21:01.706Z,7.73
2023-03-20T04:24:04.655Z,7.67
2023-03-20T04:27:06.905Z,7.62
2023-03-20T04:30:10.341Z,7.52
2023-03-20T04:33:31.319Z,7.46
2023-03-20T04:36:40.771Z,7.41
2023-03-20T04:39:45.175Z,7.43
2023-03-20T04:42:47.252Z,7.42
2023-03-20T04:45:49.442Z,7.41
2023-03-20T04:48:52.008Z,7.46
2023-03-20T04:51:55.617Z,7.48
2023-03-20T04:55:10.856Z,7.46
2023-03-20T04:58:13.208Z,7.41
2023-03-20T05:01:16.258Z,7.44
2023-03-20T05:04:18.433Z,7.42
2023-03-20T05:07:20.843Z,7.41
2023-03-20T05:10:27.603Z,7.51
2023-03-20T05:13:38.254Z,7.64
2023-03-20T05:17:15.875Z,7.80
2023-03-20T05:20:37.888Z,7.79
2023-03-20T05:23:55.487Z,7.73
2023-03-20T05:27:20.288Z,7.88
2023-03-20T05:30:37.752Z,7.97
2023-03-20T05:34:02.952Z,8.10
2023-03-20T05:37:19.521Z,8.17
2023-03-20T05:40:44.801Z,8.25
2023-03-20T05:43:49.764Z,8.35
2023-03-20T05:47:11.614Z,8.44
2023-03-20T05:50:32.708Z,8.35
2023-03-20T05:53:37.907Z,8.35
2023-03-20T05:57:03.249Z,8.40
2023-03-20T06:00:24.568Z,8.58
2023-03-20T06:03:46.719Z,8.64
2023-03-20T06:06:52.383Z,8.58
2023-03-20T06:09:54.497Z,8.57
2023-03-20T06:12:58.184Z,8.59
2023-03-20T06:16:02.139Z,8.66
2023-03-20T06:19:04.772Z,8.62
2023-03-20T06:22:07.380Z,8.73
2023-03-20T06:25:09.996Z,8.80
2023-03-20T06:28:17.036Z,8.76
2023-03-20T06:31:19.628Z,8.95
2023-03-20T06:34:22.481Z,9.34
2023-03-20T06:37:24.861Z,9.52
2023-03-20T06:40:34.054Z,9.59
2023-03-20T06:43:37.243Z,9.83
2023-03-20T06:46:40.035Z,9.83
2023-03-20T06:49:45.202Z,9.94
2023-03-20T06:52:48.538Z,10.16
2023-03-20T06:56:26.049Z,10.30
2023-03-20T06:59:28.381Z,10.06
2023-03-20T07:02:33.434Z,10.49
2023-03-20T07:05:36.375Z,10.45
2023-03-20T07:08:42.203Z,10.40
2023-03-20T07:11:45.168Z,10.74
2023-03-20T07:14:48.465Z,10.75
2023-03-20T07:17:54.463Z,10.98
2023-03-20T07:21:03.184Z,10.89
2023-03-20T07:24:07.951Z,10.75
2023-03-20T07:27:11.413Z,10.34
2023-03-20T07:30:13.905Z,10.69
2023-03-20T07:33:16.111Z,11.10
2023-03-20T07:36:22.776Z,11.13
2023-03-20T07:39:25.062Z,10.99
2023-03-20T07:42:59.557Z,11.16
2023-03-20T07:46:20.710Z,11.43
2023-03-20T07:49:23.111Z,11.52
2023-03-20T07:52:25.698Z,11.61
2023-03-20T07:55:28.922Z,11.70
2023-03-20T07:58:31.120Z,11.88
2023-03-20T08:01:33.680Z,11.57
2023-03-20T08:04:36.590Z,11.90
2023-03-20T08:07:38.772Z,12.08
2023-03-20T08:10:41.219Z,11.75
2023-03-20T08:13:43.362Z,12.24
2023-03-20T08:16:45.467Z,12.31
2023-03-20T08:19:47.734Z,12.14
2023-03-20T08:22:50.516Z,12.50
2023-03-20T08:25:54.387Z,12.04
2023-03-20T08:28:56.456Z,12.29
2023-03-20T08:31:58.568Z,12.76
2023-03-20T08:35:00.826Z,12.97
2023-03-20T08:38:03.085Z,12.89
2023-03-20T08:41:07.075Z,12.93
2023-03-20T08:44:09.936Z,12.67
2023-03-20T08:47:12.295Z,12.64
2023-03-20T08:50:14.949Z,13.00
2023-03-20T08:53:17.186Z,13.40
2023-03-20T08:56:19.728Z,13.39
2023-03-20T08:59:21.990Z,13.74
2023-03-20T09:02:24.189Z,13.61
2023-03-20T09:05:26.287Z,13.84
2023-03-20T09:08:28.587Z,14.04
2023-03-20T09:11:31.033Z,13.72
2023-03-20T09:14:33.070Z,13.73
2023-03-20T09:17:35.182Z,13.65
2023-03-20T09:20:38.084Z,13.87
2023-03-20T09:23:40.796Z,13.84
2023-03-20T09:26:42.867Z,13.95
2023-03-20T09:29:45.032Z,13.82
2023-03-20T09:32:47.042Z,13.82
2023-03-20T09:35:49.335Z,13.59
2023-03-20T09:38:51.440Z,14.18
2023-03-20T09:41:57.387Z,13.96
2023-03-20T09:45:16.381Z,13.72
2023-03-20T09:48:40.873Z,13.44
2023-03-20T09:51:57.240Z,13.62
2023-03-20T09:55:08.095Z,13.82
2023-03-20T09:58:27.466Z,14.17
2023-03-20T10:01:52.027Z,14.38
2023-03-20T10:04:55.893Z,14.49
2023-03-20T10:08:01.264Z,14.56
2023-03-20T10:11:09.248Z,14.23
2023-03-20T10:14:23.171Z,14.70
2023-03-20T10:17:39.980Z,14.59
2023-03-20T10:21:20.122Z,14.97
2023-03-20T10:24:29.203Z,14.52
2023-03-20T10:27:35.363Z,15.12
2023-03-20T10:30:54.017Z,14.60
2023-03-20T10:34:24.128Z,14.98
2023-03-20T10:37:53.875Z,15.34
2023-03-20T10:40:58.242Z,15.40
2023-03-20T10:44:01.382Z,15.30
2023-03-20T10:47:07.509Z,15.08
2023-03-20T10:50:19.476Z,15.66
2023-03-20T10:53:34.855Z,15.62
2023-03-20T10:56:40.873Z,15.49
2023-03-20T10:59:50.313Z,15.94
2023-03-20T11:02:52.551Z,16.32
2023-03-20T11:06:09.263Z,15.86
2023-03-20T11:09:23.996Z,16.15
2023-03-20T11:12:33.500Z,15.97
2023-03-20T11:15:35.784Z,15.44
2023-03-20T11:18:40.964Z,15.56
2023-03-20T11:21:53.220Z,15.60
2023-03-20T11:25:04.008Z,16.63
2023-03-20T11:28:36.225Z,16.00
2023-03-20T11:31:43.569Z,16.44
2023-03-20T11:34:46.132Z,16.74
2023-03-20T11:37:50.862Z,16.34
2023-03-20T11:40:53.707Z,17.04
2023-03-20T11:43:55.872Z,15.96
2023-03-20T11:47:22.660Z,16.29
2023-03-20T11:50:31.622Z,15.75
2023-03-20T11:53:40.715Z,15.92
2023-03-20T11:56:55.826Z,16.48
2023-03-20T12:00:01.139Z,16.97
2023-03-20T12:03:03.953Z,16.77
2023-03-20T12:06:07.755Z,16.48
2023-03-20T12:09:28.840Z,16.55
2023-03-20T12:12:41.206Z,16.45
2023-03-20T12:15:49.757Z,17.05
2023-03-20T12:18:57.474Z,17.01
2023-03-20T12:22:07.584Z,16.70
2023-03-20T12:25:23.354Z,16.68
2023-03-20T12:28:47.536Z,17.08
2023-03-20T12:31:54.308Z,16.66
2023-03-20T12:35:30.646Z,16.80
2023-03-20T12:38:37.326Z,16.43
2023-03-20T12:42:16.711Z,15.97
2023-03-20T12:45:26.299Z,16.49
2023-03-20T12:48:52.024Z,16.73
2023-03-20T12:52:16.422Z,16.78
2023-03-20T12:55:40.358Z,16.96
2023-03-20T12:59:17.178Z,16.91
2023-03-20T13:02:38.017Z,16.32
2023-03-20T13:05:51.367Z,17.05
2023-03-20T13:09:28.127Z,17.06
2023-03-20T13:12:49.077Z,17.07
2023-03-20T13:16:06.340Z,17.09
2023-03-20T13:19:37.391Z,16.41
2023-03-20T13:22:56.944Z,16.15
2023-03-20T13:26:17.675Z,16.78
2023-03-20T13:29:34.159Z,16.90
2023-03-20T13:33:17.570Z,16.32
2023-03-20T13:36:25.760Z,16.53
2023-03-20T13:39:36.331Z,16.55
2023-03-20T13:42:53.231Z,16.61
2023-03-20T13:46:04.928Z,16.71
2023-03-20T13:49:32.612Z,16.38
2023-03-20T13:52:42.763Z,16.34
2023-03-20T13:55:54.170Z,16.74
2023-03-20T13:59:03.889Z,16.53
2023-03-20T14:02:50.696Z,16.13
2023-03-20T14:05:52.806Z,16.31
2023-03-20T14:08:55.399Z,16.32
2023-03-20T14:12:09.067Z,16.24
2023-03-20T14:15:12.195Z,16.10
2023-03-20T14:18:17.790Z,16.06
2023-03-20T14:21:24.192Z,16.12
2023-03-20T14:24:28.427Z,16.10
2023-03-20T14:27:43.872Z,16.17
2023-03-20T14:30:50.887Z,16.29
2023-03-20T14:34:11.893Z,16.29
2023-03-20T14:37:31.611Z,16.15
2023-03-20T14:40:40.507Z,16.08
2023-03-20T14:44:25.952Z,16.03
2023-03-20T14:47:43.196Z,16.10
2023-03-20T14:50:48.139Z,16.03
2023-03-20T14:53:58.352Z,16.07
2023-03-20T15:25:19.223Z,15.64
2023-03-20T15:28:25.588Z,15.53
2023-03-20T15:31:32.052Z,15.51
2023-03-20T15:34:34.438Z,15.51
2023-03-20T15:37:36.926Z,15.53
2023-03-20T15:40:50.251Z,15.46
2023-03-20T15:43:53.584Z,15.54
2023-03-20T15:47:01.583Z,15.50
2023-03-20T15:50:05.186Z,15.41
2023-03-20T15:53:12.221Z,15.35
2023-03-20T15:56:19.020Z,15.34
2023-03-20T15:59:25.854Z,15.20
2023-03-20T16:02:30.313Z,15.28
2023-03-20T16:05:34.147Z,15.41
2023-03-20T16:09:17.241Z,15.35
2023-03-20T16:13:19.166Z,14.89
2023-03-20T16:16:50.579Z,14.92
2023-03-20T16:19:53.203Z,14.94
2023-03-20T16:23:01.967Z,14.83
2023-03-20T16:26:07.218Z,14.55
2023-03-20T16:29:13.614Z,14.49
2023-03-20T16:32:26.948Z,14.37
2023-03-20T16:35:43.309Z,14.22
2023-03-20T16:39:24.797Z,13.99
2023-03-20T16:42:29.632Z,13.79
2023-03-20T16:45:34.329Z,13.67
2023-03-20T16:48:42.529Z,13.43
2023-03-20T16:51:44.805Z,13.27
2023-03-20T16:54:46.880Z,13.09
2023-03-20T16:57:53.184Z,13.01
2023-03-20T17:01:02.171Z,12.89
2023-03-20T17:04:29.134Z,12.72
2023-03-20T17:07:31.424Z,12.59
2023-03-20T17:10:33.653Z,12.52
2023-03-20T17:13:35.932Z,12.39
2023-03-20T17:16:40.364Z,12.33
2023-03-20T17:19:42.925Z,12.27
2023-03-20T17:22:45.452Z,12.17
2023-03-20T17:25:49.358Z,12.05
2023-03-20T17:28:51.774Z,12.03
2023-03-20T17:31:54.648Z,12.00
2023-03-20T17:34:56.884Z,12.01
2023-03-20T17:37:59.687Z,11.96
2023-03-20T17:41:02.263Z,11.90
2023-03-20T17:44:04.695Z,11.79
2023-03-20T17:47:14.540Z,11.63
2023-03-20T17:50:24.509Z,11.47
2023-03-20T17:53:30.997Z,11.41
2023-03-20T17:56:33.539Z,11.38
2023-03-20T17:59:36.165Z,11.36
2023-03-20T18:02:38.439Z,11.41
2023-03-20T18:05:40.656Z,11.41
2023-03-20T18:08:43.063Z,11.41
2023-03-20T18:11:45.548Z,11.41
2023-03-20T18:14:49.118Z,11.34
2023-03-20T18:17:51.159Z,11.27
2023-03-20T18:20:54.918Z,11.15
2023-03-20T18:23:57.255Z,11.15
2023-03-20T18:26:59.796Z,11.18
2023-03-20T18:30:01.864Z,11.18
2023-03-20T18:33:06.229Z,11.14
2023-03-20T18:36:14.698Z,11.13
2023-03-20T18:39:24.882Z,11.01
2023-03-20T18:42:27.512Z,10.92
2023-03-20T18:45:30.972Z,10.86
2023-03-20T18:48:33.802Z,10.91
2023-03-20T18:51:36.385Z,10.93
2023-03-20T18:54:39.202Z,10.90
2023-03-20T18:57:43.182Z,10.86
2023-03-20T19:00:45.945Z,10.80
2023-03-20T19:03:49.194Z,10.79
2023-03-20T19:06:51.745Z,10.79
2023-03-20T19:09:54.570Z,10.80
2023-03-20T19:12:58.031Z,10.77
2023-03-20T19:16:00.523Z,10.76
2023-03-20T19:19:04.941Z,10.69
2023-03-20T19:22:13.080Z,10.60
2023-03-20T19:25:18.376Z,10.58
2023-03-20T19:28:38.684Z,10.52
2023-03-20T19:31:41.740Z,10.45
2023-03-20T19:35:38.464Z,10.43
2023-03-20T19:38:06.982Z,10.45
2023-03-20T19:41:10.012Z,10.53
2023-03-20T19:44:12.386Z,10.56
2023-03-20T19:47:14.945Z,10.53
2023-03-20T19:50:30.292Z,10.45
2023-03-20T19:53:32.831Z,10.34
2023-03-20T19:56:35.086Z,10.27
2023-03-20T19:59:43.649Z,10.20
2023-03-20T20:02:46.739Z,10.16
2023-03-20T20:05:50.629Z,10.15
2023-03-20T20:08:53.150Z,10.19
2023-03-20T20:11:55.489Z,10.14
2023-03-20T20:14:58.036Z,10.15
2023-03-20T20:18:00.887Z,10.16
2023-03-20T20:24:26.847Z,10.01
2023-03-20T20:27:29.867Z,9.99
2023-03-20T20:30:32.957Z,9.59
2023-03-20T20:33:36.838Z,9.41
2023-03-20T20:40:02.074Z,9.34
2023-03-20T20:43:10.147Z,9.44
2023-03-20T20:46:12.993Z,9.51
2023-03-20T20:49:19.532Z,9.19
2023-03-20T20:52:22.352Z,9.31
2023-03-20T20:55:25.734Z,9.36
2023-03-20T20:58:27.997Z,9.40
2023-03-20T21:01:30.979Z,9.43
2023-03-20T21:04:33.732Z,9.43
2023-03-20T21:07:35.898Z,9.22
2023-03-20T21:10:38.412Z,9.21
2023-03-20T21:13:40.970Z,9.38
2023-03-20T21:16:43.017Z,9.40
2023-03-20T21:19:45.560Z,9.35
2023-03-20T21:22:47.679Z,9.23
2023-03-20T21:25:50.034Z,9.28
2023-03-20T21:28:52.315Z,9.34
2023-03-20T21:31:54.603Z,9.44
2023-03-20T21:35:02.292Z,9.35
2023-03-20T21:38:47.608Z,9.37
2023-03-20T21:41:26.446Z,9.37
2023-03-20T21:55:12.927Z,9.05
2023-03-20T22:05:28.320Z,9.11
2023-03-20T22:12:06.066Z,9.10
2023-03-20T22:19:05.645Z,9.09
2023-03-20T22:22:08.304Z,9.08
2023-03-20T22:32:38.081Z,8.96
2023-03-20T22:45:18.158Z,8.69
2023-03-20T22:48:22.412Z,8.76
2023-03-20T22:51:32.524Z,8.68
2023-03-20T22:54:37.457Z,8.69
2023-03-20T22:57:47.619Z,8.66
2023-03-20T23:00:52.129Z,8.73
2023-03-20T23:03:54.227Z,8.84
2023-03-20T23:06:56.865Z,8.95
2023-03-20T23:09:58.911Z,9.08
2023-03-20T23:13:01.245Z,9.18
2023-03-20T23:16:03.833Z,9.30
2023-03-20T23:19:06.430Z,9.45
2023-03-20T23:22:08.905Z,9.57
2023-03-20T23:25:18.571Z,9.61
2023-03-20T23:28:29.367Z,9.80
2023-03-20T23:31:31.751Z,9.90
2023-03-20T23:34:33.807Z,10.02
2023-03-20T23:37:36.360Z,9.77
2023-03-20T23:40:38.731Z,9.79
2023-03-20T23:43:49.268Z,9.73
2023-03-20T23:46:52.260Z,9.45
2023-03-20T23:49:54.438Z,9.44
2023-03-20T23:53:09.555Z,9.57
2023-03-20T23:56:19.879Z,9.75
2023-03-20T23:59:22.410Z,9.92
